sensor_id;sensor_type;location;lat;lon;timestamp;pressure;altitude;pressure_sealevel;temperature;humidity
72336;BME280;65062;48.446;8.834;2023-03-21T00:02:51;97750.13;;;4.56;89.17
72336;BME280;65062;48.446;8.834;2023-03-21T00:05:52;97737.66;;;4.69;89.78
72336;BME280;65062;48.446;8.834;2023-03-21T00:08:53;97733.94;;;4.71;89.62
72336;BME280;65062;48.446;8.834;2023-03-21T00:11:53;97735.69;;;4.80;90.19
72336;BME280;65062;48.446;8.834;2023-03-21T00:14:53;97736.41;;;5.00;88.82
72336;BME280;65062;48.446;8.834;2023-03-21T00:17:56;97732.09;;;4.91;88.91
72336;BME280;65062;48.446;8.834;2023-03-21T00:21:04;97730.06;;;5.12;88.49
72336;BME280;65062;48.446;8.834;2023-03-21T00:24:05;97727.53;;;5.20;88.73
72336;BME280;65062;48.446;8.834;2023-03-21T00:27:05;97720.34;;;5.14;87.90
72336;BME280;65062;48.446;8.834;2023-03-21T00:30:06;97712.78;;;5.03;88.61
72336;BME280;65062;48.446;8.834;2023-03-21T00:33:07;97713.09;;;5.17;88.49
72336;BME280;65062;48.446;8.834;2023-03-21T00:36:08;97703.03;;;5.32;88.14
72336;BME280;65062;48.446;8.834;2023-03-21T00:39:09;97711.47;;;5.34;87.25
72336;BME280;65062;48.446;8.834;2023-03-21T00:42:10;97711.84;;;5.39;87.46
72336;BME280;65062;48.446;8.834;2023-03-21T00:45:11;97712.00;;;5.37;87.72
72336;BME280;65062;48.446;8.834;2023-03-21T00:48:12;97706.66;;;5.39;86.96
72336;BME280;65062;48.446;8.834;2023-03-21T00:51:20;97706.59;;;5.31;86.55
72336;BME280;65062;48.446;8.834;2023-03-21T00:54:25;97708.28;;;5.40;87.75
72336;BME280;65062;48.446;8.834;2023-03-21T00:57:26;97703.03;;;5.49;86.65
72336;BME280;65062;48.446;8.834;2023-03-21T01:00:26;97702.44;;;5.55;86.67
72336;BME280;65062;48.446;8.834;2023-03-21T01:03:27;97702.56;;;5.71;86.38
72336;BME280;65062;48.446;8.834;2023-03-21T01:06:28;97705.00;;;5.73;86.05
72336;BME280;65062;48.446;8.834;2023-03-21T01:09:28;97707.16;;;5.77;85.38
72336;BME280;65062;48.446;8.834;2023-03-21T01:12:29;97696.34;;;5.82;85.27
72336;BME280;65062;48.446;8.834;2023-03-21T01:15:30;97696.19;;;5.83;85.45
72336;BME280;65062;48.446;8.834;2023-03-21T01:18:30;97691.50;;;5.87;85.50
72336;BME280;65062;48.446;8.834;2023-03-21T01:21:31;97693.47;;;5.85;85.68
72336;BME280;65062;48.446;8.834;2023-03-21T01:24:32;97692.41;;;5.95;85.36
72336;BME280;65062;48.446;8.834;2023-03-21T01:27:32;97697.94;;;6.00;85.33
72336;BME280;65062;48.446;8.834;2023-03-21T01:30:33;97699.59;;;6.01;85.14
72336;BME280;65062;48.446;8.834;2023-03-21T01:33:34;97690.53;;;6.05;85.39
72336;BME280;65062;48.446;8.834;2023-03-21T01:36:34;97692.13;;;6.06;84.82
72336;BME280;65062;48.446;8.834;2023-03-21T01:39:35;97689.19;;;6.01;84.84
72336;BME280;65062;48.446;8.834;2023-03-21T01:42:36;97689.09;;;6.11;84.60
72336;BME280;65062;48.446;8.834;2023-03-21T01:46:07;97689.25;;;6.09;84.79
72336;BME280;65062;48.446;8.834;2023-03-21T01:49:17;97683.19;;;6.01;85.08
72336;BME280;65062;48.446;8.834;2023-03-21T01:52:23;97682.88;;;6.04;84.77
72336;BME280;65062;48.446;8.834;2023-03-21T01:55:25;97685.31;;;6.05;84.50
72336;BME280;65062;48.446;8.834;2023-03-21T01:58:26;97689.31;;;6.17;83.76
72336;BME280;65062;48.446;8.834;2023-03-21T02:01:26;97682.06;;;6.03;83.80
72336;BME280;65062;48.446;8.834;2023-03-21T02:04:27;97677.53;;;6.05;84.14
72336;BME280;65062;48.446;8.834;2023-03-21T02:07:30;97674.56;;;6.00;84.31
72336;BME280;65062;48.446;8.834;2023-03-21T02:10:34;97674.72;;;5.99;84.01
72336;BME280;65062;48.446;8.834;2023-03-21T02:13:35;97667.38;;;5.94;84.21
72336;BME280;65062;48.446;8.834;2023-03-21T02:16:49;97664.22;;;5.83;85.06
72336;BME280;65062;48.446;8.834;2023-03-21T02:26:34;97661.09;;;5.62;86.12
72336;BME280;65062;48.446;8.834;2023-03-21T02:33:22;97661.63;;;5.65;86.18
72336;BME280;65062;48.446;8.834;2023-03-21T02:40:31;97654.88;;;5.55;86.14
72336;BME280;65062;48.446;8.834;2023-03-21T02:43:43;97662.06;;;5.61;85.99
72336;BME280;65062;48.446;8.834;2023-03-21T02:46:57;97656.84;;;5.53;86.33
72336;BME280;65062;48.446;8.834;2023-03-21T02:50:51;97662.66;;;5.55;86.18
72336;BME280;65062;48.446;8.834;2023-03-21T02:53:29;97659.03;;;5.48;86.43
72336;BME280;65062;48.446;8.834;2023-03-21T02:56:31;97657.94;;;5.33;86.18
72336;BME280;65062;48.446;8.834;2023-03-21T02:59:34;97659.44;;;5.35;86.36
72336;BME280;65062;48.446;8.834;2023-03-21T03:02:37;97661.41;;;5.06;87.03
72336;BME280;65062;48.446;8.834;2023-03-21T03:05:44;97660.28;;;4.91;86.94
72336;BME280;65062;48.446;8.834;2023-03-21T03:16:06;97656.59;;;4.67;87.97
72336;BME280;65062;48.446;8.834;2023-03-21T03:19:21;97650.19;;;4.44;87.78
72336;BME280;65062;48.446;8.834;2023-03-21T03:22:40;97643.53;;;4.41;88.46
72336;BME280;65062;48.446;8.834;2023-03-21T03:28:57;97648.94;;;4.11;88.87
72336;BME280;65062;48.446;8.834;2023-03-21T03:32:02;97641.75;;;4.05;89.47
72336;BME280;65062;48.446;8.834;2023-03-21T03:35:06;97636.75;;;3.94;89.88
72336;BME280;65062;48.446;8.834;2023-03-21T03:38:07;97633.63;;;3.81;87.85
72336;BME280;65062;48.446;8.834;2023-03-21T03:41:11;97637.50;;;3.58;87.52
72336;BME280;65062;48.446;8.834;2023-03-21T03:44:17;97642.44;;;3.32;88.42
72336;BME280;65062;48.446;8.834;2023-03-21T03:47:23;97633.03;;;3.22;89.71
72336;BME280;65062;48.446;8.834;2023-03-21T03:50:30;97642.97;;;3.07;89.53
72336;BME280;65062;48.446;8.834;2023-03-21T03:53:41;97640.78;;;3.03;89.55
72336;BME280;65062;48.446;8.834;2023-03-21T03:56:44;97634.78;;;2.93;89.40
72336;BME280;65062;48.446;8.834;2023-03-21T03:59:46;97634.34;;;2.78;88.83
72336;BME280;65062;48.446;8.834;2023-03-21T04:02:46;97627.53;;;2.58;89.11
72336;BME280;65062;48.446;8.834;2023-03-21T04:05:47;97624.75;;;2.41;89.85
72336;BME280;65062;48.446;8.834;2023-03-21T04:08:47;97626.78;;;2.37;90.59
72336;BME280;65062;48.446;8.834;2023-03-21T04:11:48;97623.53;;;2.35;91.09
72336;BME280;65062;48.446;8.834;2023-03-21T04:14:49;97632.44;;;2.61;92.42
72336;BME280;65062;48.446;8.834;2023-03-21T04:17:49;97625.47;;;2.52;92.05
72336;BME280;65062;48.446;8.834;2023-03-21T04:20:49;97621.66;;;2.47;92.20
72336;BME280;65062;48.446;8.834;2023-03-21T04:23:50;97623.69;;;2.43;91.79
72336;BME280;65062;48.446;8.834;2023-03-21T04:26:53;97623.03;;;2.51;91.47
72336;BME280;65062;48.446;8.834;2023-03-21T04:29:54;97625.97;;;2.37;90.96
72336;BME280;65062;48.446;8.834;2023-03-21T04:32:55;97622.97;;;2.32;91.79
72336;BME280;65062;48.446;8.834;2023-03-21T04:36:00;97616.56;;;2.26;92.08
72336;BME280;65062;48.446;8.834;2023-03-21T04:39:00;97621.63;;;2.37;91.48
72336;BME280;65062;48.446;8.834;2023-03-21T04:42:00;97622.78;;;2.23;91.14
72336;BME280;65062;48.446;8.834;2023-03-21T04:45:01;97627.09;;;2.13;91.46
72336;BME280;65062;48.446;8.834;2023-03-21T04:48:02;97621.91;;;2.04;92.10
72336;BME280;65062;48.446;8.834;2023-03-21T04:51:03;97629.03;;;2.11;91.09
72336;BME280;65062;48.446;8.834;2023-03-21T04:54:04;97631.94;;;1.97;91.74
72336;BME280;65062;48.446;8.834;2023-03-21T04:57:04;97640.13;;;2.02;92.40
72336;BME280;65062;48.446;8.834;2023-03-21T05:00:07;97642.78;;;2.31;92.72
72336;BME280;65062;48.446;8.834;2023-03-21T05:03:09;97629.88;;;2.31;91.87
72336;BME280;65062;48.446;8.834;2023-03-21T05:06:09;97630.84;;;2.30;92.31
72336;BME280;65062;48.446;8.834;2023-03-21T05:09:10;97633.28;;;2.32;92.06
72336;BME280;65062;48.446;8.834;2023-03-21T05:12:10;97638.91;;;2.37;92.28
72336;BME280;65062;48.446;8.834;2023-03-21T05:15:11;97635.69;;;2.23;92.10
72336;BME280;65062;48.446;8.834;2023-03-21T05:18:11;97638.84;;;2.27;92.04
72336;BME280;65062;48.446;8.834;2023-03-21T05:21:12;97633.81;;;2.26;92.35
72336;BME280;65062;48.446;8.834;2023-03-21T05:24:14;97643.59;;;2.22;92.34
72336;BME280;65062;48.446;8.834;2023-03-21T05:27:20;97635.56;;;2.15;91.39
72336;BME280;65062;48.446;8.834;2023-03-21T05:30:36;97635.88;;;2.01;91.76
72336;BME280;65062;48.446;8.834;2023-03-21T05:33:37;97648.19;;;1.88;92.11
72336;BME280;65062;48.446;8.834;2023-03-21T05:36:37;97645.69;;;2.07;92.13
72336;BME280;65062;48.446;8.834;2023-03-21T05:39:38;97638.56;;;2.21;92.83
72336;BME280;65062;48.446;8.834;2023-03-21T05:42:38;97642.41;;;2.36;92.28
72336;BME280;65062;48.446;8.834;2023-03-21T05:45:39;97647.06;;;2.42;92.33
72336;BME280;65062;48.446;8.834;2023-03-21T05:48:39;97641.53;;;2.56;91.65
72336;BME280;65062;48.446;8.834;2023-03-21T05:51:40;97649.28;;;2.56;91.19
72336;BME280;65062;48.446;8.834;2023-03-21T05:54:40;97648.28;;;2.47;91.29
72336;BME280;65062;48.446;8.834;2023-03-21T05:57:41;97656.84;;;2.38;91.02
72336;BME280;65062;48.446;8.834;2023-03-21T06:00:41;97663.06;;;2.36;91.75
72336;BME280;65062;48.446;8.834;2023-03-21T06:03:41;97655.75;;;2.41;91.75
72336;BME280;65062;48.446;8.834;2023-03-21T06:06:42;97650.19;;;2.45;91.72
72336;BME280;65062;48.446;8.834;2023-03-21T06:09:42;97645.44;;;2.50;91.99
72336;BME280;65062;48.446;8.834;2023-03-21T06:12:43;97648.59;;;2.54;92.03
72336;BME280;65062;48.446;8.834;2023-03-21T06:15:43;97648.50;;;2.65;91.62
72336;BME280;65062;48.446;8.834;2023-03-21T06:18:44;97642.38;;;2.66;90.92
72336;BME280;65062;48.446;8.834;2023-03-21T06:21:45;97638.72;;;2.78;90.37
72336;BME280;65062;48.446;8.834;2023-03-21T06:24:45;97632.72;;;2.77;90.20
72336;BME280;65062;48.446;8.834;2023-03-21T06:27:46;97636.53;;;2.73;90.57
72336;BME280;65062;48.446;8.834;2023-03-21T06:30:46;97627.16;;;2.82;90.62
72336;BME280;65062;48.446;8.834;2023-03-21T06:33:50;97641.19;;;2.79;90.51
72336;BME280;65062;48.446;8.834;2023-03-21T06:36:50;97635.22;;;2.88;90.27
72336;BME280;65062;48.446;8.834;2023-03-21T06:39:51;97642.13;;;2.97;90.16
72336;BME280;65062;48.446;8.834;2023-03-21T06:42:52;97635.88;;;3.09;89.81
72336;BME280;65062;48.446;8.834;2023-03-21T06:45:52;97634.94;;;3.10;89.71
72336;BME280;65062;48.446;8.834;2023-03-21T06:48:53;97629.63;;;3.21;89.52
72336;BME280;65062;48.446;8.834;2023-03-21T06:51:53;97631.38;;;3.21;89.22
72336;BME280;65062;48.446;8.834;2023-03-21T06:54:53;97626.50;;;3.18;88.99
72336;BME280;65062;48.446;8.834;2023-03-21T06:57:55;97619.72;;;3.26;89.21
72336;BME280;65062;48.446;8.834;2023-03-21T07:00:59;97626.78;;;3.24;89.41
72336;BME280;65062;48.446;8.834;2023-03-21T07:04:00;97622.81;;;3.30;89.27
72336;BME280;65062;48.446;8.834;2023-03-21T07:07:01;97632.47;;;3.47;88.90
72336;BME280;65062;48.446;8.834;2023-03-21T07:10:02;97640.34;;;3.64;89.12
72336;BME280;65062;48.446;8.834;2023-03-21T07:13:02;97632.84;;;3.71;88.79
72336;BME280;65062;48.446;8.834;2023-03-21T07:16:03;97627.47;;;3.91;89.04
72336;BME280;65062;48.446;8.834;2023-03-21T07:19:03;97627.13;;;4.13;88.29
72336;BME280;65062;48.446;8.834;2023-03-21T07:22:04;97625.47;;;4.22;87.78
72336;BME280;65062;48.446;8.834;2023-03-21T07:25:05;97613.91;;;4.44;88.11
72336;BME280;65062;48.446;8.834;2023-03-21T07:28:06;97617.72;;;4.67;87.67
72336;BME280;65062;48.446;8.834;2023-03-21T07:31:13;97624.28;;;4.88;87.96
72336;BME280;65062;48.446;8.834;2023-03-21T07:34:14;97616.22;;;5.09;87.61
72336;BME280;65062;48.446;8.834;2023-03-21T07:37:15;97618.50;;;5.29;86.29
72336;BME280;65062;48.446;8.834;2023-03-21T07:40:17;97609.59;;;5.49;86.38
72336;BME280;65062;48.446;8.834;2023-03-21T07:43:18;97612.81;;;5.69;86.66
72336;BME280;65062;48.446;8.834;2023-03-21T07:46:19;97599.97;;;5.85;85.33
72336;BME280;65062;48.446;8.834;2023-03-21T07:49:19;97601.81;;;6.00;85.57
72336;BME280;65062;48.446;8.834;2023-03-21T07:52:19;97609.91;;;6.23;85.03
72336;BME280;65062;48.446;8.834;2023-03-21T07:55:20;97605.59;;;6.39;83.86
72336;BME280;65062;48.446;8.834;2023-03-21T07:58:23;97606.03;;;6.69;81.77
72336;BME280;65062;48.446;8.834;2023-03-21T08:01:25;97606.03;;;6.77;82.40
72336;BME280;65062;48.446;8.834;2023-03-21T08:04:25;97607.03;;;6.92;81.80
72336;BME280;65062;48.446;8.834;2023-03-21T08:07:27;97600.91;;;7.17;80.41
72336;BME280;65062;48.446;8.834;2023-03-21T08:10:27;97598.97;;;7.35;80.97
72336;BME280;65062;48.446;8.834;2023-03-21T08:13:27;97596.66;;;7.64;78.83
72336;BME280;65062;48.446;8.834;2023-03-21T08:16:28;97589.66;;;7.80;79.81
72336;BME280;65062;48.446;8.834;2023-03-21T08:19:29;97580.63;;;7.99;79.06
72336;BME280;65062;48.446;8.834;2023-03-21T08:22:30;97573.91;;;8.28;76.54
72336;BME280;65062;48.446;8.834;2023-03-21T08:25:30;97577.09;;;8.46;76.39
72336;BME280;65062;48.446;8.834;2023-03-21T08:28:32;97581.03;;;8.73;74.93
72336;BME280;65062;48.446;8.834;2023-03-21T08:31:33;97576.00;;;8.94;75.37
72336;BME280;65062;48.446;8.834;2023-03-21T08:34:33;97574.78;;;9.27;74.76
72336;BME280;65062;48.446;8.834;2023-03-21T08:37:34;97576.41;;;9.51;72.97
72336;BME280;65062;48.446;8.834;2023-03-21T08:40:35;97568.06;;;9.84;70.74
72336;BME280;65062;48.446;8.834;2023-03-21T08:43:35;97567.22;;;10.06;70.74
72336;BME280;65062;48.446;8.834;2023-03-21T08:46:36;97557.38;;;10.37;68.35
72336;BME280;65062;48.446;8.834;2023-03-21T08:49:37;97559.31;;;10.65;66.69
72336;BME280;65062;48.446;8.834;2023-03-21T08:52:37;97563.97;;;10.84;66.44
72336;BME280;65062;48.446;8.834;2023-03-21T08:55:37;97559.81;;;11.10;64.58
72336;BME280;65062;48.446;8.834;2023-03-21T08:58:38;97560.72;;;11.45;62.85
72336;BME280;65062;48.446;8.834;2023-03-21T09:01:38;97550.84;;;11.68;62.86
72336;BME280;65062;48.446;8.834;2023-03-21T09:04:39;97553.19;;;11.84;60.48
72336;BME280;65062;48.446;8.834;2023-03-21T09:07:40;97556.88;;;12.23;59.73
72336;BME280;65062;48.446;8.834;2023-03-21T09:10:40;97555.16;;;12.50;57.38
72336;BME280;65062;48.446;8.834;2023-03-21T09:13:41;97558.25;;;12.60;57.92
72336;BME280;65062;48.446;8.834;2023-03-21T09:16:41;97558.97;;;12.88;58.31
72336;BME280;65062;48.446;8.834;2023-03-21T09:19:41;97555.41;;;13.15;57.15
72336;BME280;65062;48.446;8.834;2023-03-21T09:22:43;97553.63;;;13.42;56.21
72336;BME280;65062;48.446;8.834;2023-03-21T09:25:44;97550.97;;;13.74;56.28
72336;BME280;65062;48.446;8.834;2023-03-21T09:28:45;97552.78;;;13.93;55.50
72336;BME280;65062;48.446;8.834;2023-03-21T09:31:46;97551.72;;;14.33;53.09
72336;BME280;65062;48.446;8.834;2023-03-21T09:34:46;97551.63;;;14.59;54.21
72336;BME280;65062;48.446;8.834;2023-03-21T09:37:48;97545.91;;;14.69;52.46
72336;BME280;65062;48.446;8.834;2023-03-21T09:47:26;97537.88;;;15.26;52.63
72336;BME280;65062;48.446;8.834;2023-03-21T09:50:36;97539.44;;;15.40;49.66
72336;BME280;65062;48.446;8.834;2023-03-21T09:53:40;97537.59;;;15.10;49.70
72336;BME280;65062;48.446;8.834;2023-03-21T09:56:43;97538.66;;;15.27;50.99
72336;BME280;65062;48.446;8.834;2023-03-21T09:59:45;97537.47;;;15.78;50.86
72336;BME280;65062;48.446;8.834;2023-03-21T10:02:49;97531.00;;;15.81;49.88
72336;BME280;65062;48.446;8.834;2023-03-21T10:05:52;97530.84;;;16.12;50.08
72336;BME280;65062;48.446;8.834;2023-03-21T10:09:02;97520.75;;;16.27;50.26
72336;BME280;65062;48.446;8.834;2023-03-21T10:12:12;97516.78;;;16.18;49.27
72336;BME280;65062;48.446;8.834;2023-03-21T10:15:18;97517.97;;;16.58;47.34
72336;BME280;65062;48.446;8.834;2023-03-21T10:18:24;97521.47;;;16.34;46.42
72336;BME280;65062;48.446;8.834;2023-03-21T10:21:27;97510.19;;;16.27;47.67
72336;BME280;65062;48.446;8.834;2023-03-21T10:24:28;97512.31;;;16.54;48.16
72336;BME280;65062;48.446;8.834;2023-03-21T10:27:32;97508.72;;;16.13;45.67
72336;BME280;65062;48.446;8.834;2023-03-21T10:33:39;97507.44;;;15.97;45.23
72336;BME280;65062;48.446;8.834;2023-03-21T10:36:41;97505.34;;;16.42;46.42
72336;BME280;65062;48.446;8.834;2023-03-21T10:39:44;97503.91;;;16.76;46.28
72336;BME280;65062;48.446;8.834;2023-03-21T10:42:45;97505.44;;;16.53;44.73
72336;BME280;65062;48.446;8.834;2023-03-21T10:45:47;97506.09;;;16.13;44.94
72336;BME280;65062;48.446;8.834;2023-03-21T10:48:52;97505.09;;;16.07;46.17
72336;BME280;65062;48.446;8.834;2023-03-21T10:51:56;97511.66;;;16.05;42.82
72336;BME280;65062;48.446;8.834;2023-03-21T10:58:29;97500.13;;;16.35;44.59
72336;BME280;65062;48.446;8.834;2023-03-21T11:01:42;97503.06;;;16.63;43.56
72336;BME280;65062;48.446;8.834;2023-03-21T11:04:45;97503.06;;;16.93;42.54
72336;BME280;65062;48.446;8.834;2023-03-21T11:07:56;97505.75;;;17.05;42.63
72336;BME280;65062;48.446;8.834;2023-03-21T11:14:03;97490.59;;;17.64;41.06
72336;BME280;65062;48.446;8.834;2023-03-21T11:17:24;97507.28;;;17.88;40.43
72336;BME280;65062;48.446;8.834;2023-03-21T11:20:31;97502.09;;;17.81;41.33
72336;BME280;65062;48.446;8.834;2023-03-21T11:23:34;97494.41;;;18.03;41.38
72336;BME280;65062;48.446;8.834;2023-03-21T11:26:37;97492.38;;;18.33;40.53
72336;BME280;65062;48.446;8.834;2023-03-21T11:29:39;97490.31;;;18.35;40.46
72336;BME280;65062;48.446;8.834;2023-03-21T11:32:44;97487.78;;;18.17;38.26
72336;BME280;65062;48.446;8.834;2023-03-21T11:36:00;97485.28;;;17.99;37.04
72336;BME280;65062;48.446;8.834;2023-03-21T11:39:14;97477.66;;;18.14;39.48
72336;BME280;65062;48.446;8.834;2023-03-21T11:42:30;97477.16;;;18.28;34.94
72336;BME280;65062;48.446;8.834;2023-03-21T11:45:35;97476.50;;;19.17;36.06
72336;BME280;65062;48.446;8.834;2023-03-21T11:48:43;97458.19;;;19.49;34.47
72336;BME280;65062;48.446;8.834;2023-03-21T11:52:13;97456.09;;;18.73;33.64
72336;BME280;65062;48.446;8.834;2023-03-21T12:05:18;97436.06;;;19.27;32.94
72336;BME280;65062;48.446;8.834;2023-03-21T12:08:40;97432.19;;;20.22;34.28
72336;BME280;65062;48.446;8.834;2023-03-21T12:11:56;97433.53;;;20.94;31.57
72336;BME280;65062;48.446;8.834;2023-03-21T12:21:19;97418.13;;;23.23;27.99
72336;BME280;65062;48.446;8.834;2023-03-21T12:24:25;97405.53;;;24.57;26.76
72336;BME280;65062;48.446;8.834;2023-03-21T12:46:59;97394.88;;;25.58;21.56
72336;BME280;65062;48.446;8.834;2023-03-21T12:50:13;97393.16;;;25.43;21.70
72336;BME280;65062;48.446;8.834;2023-03-21T12:53:31;97388.81;;;25.47;22.11
72336;BME280;65062;48.446;8.834;2023-03-21T12:56:53;97385.59;;;26.44;20.62
72336;BME280;65062;48.446;8.834;2023-03-21T13:00:16;97387.53;;;26.81;20.42
72336;BME280;65062;48.446;8.834;2023-03-21T13:03:20;97379.94;;;26.27;18.64
72336;BME280;65062;48.446;8.834;2023-03-21T13:06:23;97369.94;;;26.09;21.29
72336;BME280;65062;48.446;8.834;2023-03-21T13:09:39;97374.69;;;25.94;20.64
72336;BME280;65062;48.446;8.834;2023-03-21T13:19:22;97366.41;;;24.17;24.08
72336;BME280;65062;48.446;8.834;2023-03-21T13:22:29;97359.28;;;24.90;22.80
72336;BME280;65062;48.446;8.834;2023-03-21T13:25:31;97362.16;;;24.11;23.35
72336;BME280;65062;48.446;8.834;2023-03-21T13:28:34;97355.50;;;23.94;25.00
72336;BME280;65062;48.446;8.834;2023-03-21T13:31:43;97371.13;;;22.82;25.04
72336;BME280;65062;48.446;8.834;2023-03-21T13:34:44;97363.78;;;21.70;26.17
72336;BME280;65062;48.446;8.834;2023-03-21T13:38:15;97341.91;;;20.90;27.91
72336;BME280;65062;48.446;8.834;2023-03-21T13:41:42;97343.03;;;19.71;29.05
72336;BME280;65062;48.446;8.834;2023-03-21T13:44:48;97345.38;;;19.89;31.10
72336;BME280;65062;48.446;8.834;2023-03-21T13:47:54;97342.53;;;19.53;32.23
72336;BME280;65062;48.446;8.834;2023-03-21T13:51:02;97347.56;;;19.00;32.70
72336;BME280;65062;48.446;8.834;2023-03-21T13:54:13;97345.75;;;18.55;32.62
72336;BME280;65062;48.446;8.834;2023-03-21T14:00:29;97344.88;;;18.10;35.19
72336;BME280;65062;48.446;8.834;2023-03-21T14:03:29;97342.56;;;17.86;35.07
72336;BME280;65062;48.446;8.834;2023-03-21T14:06:39;97337.69;;;17.94;35.69
72336;BME280;65062;48.446;8.834;2023-03-21T14:09:45;97331.78;;;18.60;35.36
72336;BME280;65062;48.446;8.834;2023-03-21T14:12:47;97327.91;;;19.17;33.54
72336;BME280;65062;48.446;8.834;2023-03-21T14:15:59;97333.00;;;19.02;34.63
72336;BME280;65062;48.446;8.834;2023-03-21T14:19:03;97332.03;;;18.92;34.94
72336;BME280;65062;48.446;8.834;2023-03-21T14:22:09;97320.78;;;18.68;34.69
72336;BME280;65062;48.446;8.834;2023-03-21T14:25:13;97321.50;;;18.35;36.53
72336;BME280;65062;48.446;8.834;2023-03-21T14:28:18;97316.19;;;18.35;36.81
72336;BME280;65062;48.446;8.834;2023-03-21T14:31:19;97321.28;;;18.37;34.52
72336;BME280;65062;48.446;8.834;2023-03-21T14:34:21;97312.13;;;18.00;35.48
72336;BME280;65062;48.446;8.834;2023-03-21T14:37:40;97306.97;;;17.93;36.89
72336;BME280;65062;48.446;8.834;2023-03-21T14:40:46;97310.81;;;17.74;37.12
72336;BME280;65062;48.446;8.834;2023-03-21T14:44:24;97306.72;;;17.55;35.29
72336;BME280;65062;48.446;8.834;2023-03-21T14:47:27;97301.88;;;17.64;38.10
72336;BME280;65062;48.446;8.834;2023-03-21T14:53:37;97304.31;;;17.42;35.74
72336;BME280;65062;48.446;8.834;2023-03-21T14:56:39;97298.69;;;17.27;36.37
72336;BME280;65062;48.446;8.834;2023-03-21T14:59:40;97299.63;;;17.10;36.04
72336;BME280;65062;48.446;8.834;2023-03-21T15:02:42;97296.97;;;17.10;36.95
72336;BME280;65062;48.446;8.834;2023-03-21T15:05:45;97296.75;;;16.88;36.17
72336;BME280;65062;48.446;8.834;2023-03-21T15:09:01;97297.91;;;16.69;36.86
72336;BME280;65062;48.446;8.834;2023-03-21T15:12:07;97299.94;;;16.67;39.40
72336;BME280;65062;48.446;8.834;2023-03-21T15:15:12;97299.81;;;16.62;36.51
72336;BME280;65062;48.446;8.834;2023-03-21T15:18:17;97301.88;;;16.48;38.82
72336;BME280;65062;48.446;8.834;2023-03-21T15:21:45;97297.09;;;16.39;38.90
72336;BME280;65062;48.446;8.834;2023-03-21T15:24:46;97304.59;;;16.42;37.83
72336;BME280;65062;48.446;8.834;2023-03-21T15:27:49;97300.53;;;16.28;38.24
72336;BME280;65062;48.446;8.834;2023-03-21T15:30:51;97296.53;;;16.37;40.61
72336;BME280;65062;48.446;8.834;2023-03-21T15:33:52;97300.47;;;16.46;37.78
72336;BME280;65062;48.446;8.834;2023-03-21T15:37:01;97302.00;;;16.65;38.16
72336;BME280;65062;48.446;8.834;2023-03-21T15:40:20;97298.81;;;16.75;39.47
72336;BME280;65062;48.446;8.834;2023-03-21T15:43:21;97289.38;;;16.90;37.02
72336;BME280;65062;48.446;8.834;2023-03-21T15:49:52;97309.06;;;16.94;34.39
72336;BME280;65062;48.446;8.834;2023-03-21T15:52:53;97300.19;;;17.00;35.91
72336;BME280;65062;48.446;8.834;2023-03-21T15:55:56;97293.44;;;16.93;35.52
72336;BME280;65062;48.446;8.834;2023-03-21T15:59:02;97298.13;;;16.79;36.77
72336;BME280;65062;48.446;8.834;2023-03-21T16:02:03;97305.59;;;16.82;37.19
72336;BME280;65062;48.446;8.834;2023-03-21T16:05:27;97305.78;;;16.57;35.93
72336;BME280;65062;48.446;8.834;2023-03-21T16:08:32;97308.69;;;16.26;37.49
72336;BME280;65062;48.446;8.834;2023-03-21T16:14:40;97299.91;;;15.85;38.92
72336;BME280;65062;48.446;8.834;2023-03-21T16:17:48;97307.03;;;15.66;40.14
72336;BME280;65062;48.446;8.834;2023-03-21T16:20:50;97310.66;;;15.54;40.59
72336;BME280;65062;48.446;8.834;2023-03-21T16:23:53;97311.16;;;15.44;39.62
72336;BME280;65062;48.446;8.834;2023-03-21T16:26:53;97300.72;;;15.31;40.96
72336;BME280;65062;48.446;8.834;2023-03-21T16:29:55;97303.66;;;15.23;41.37
72336;BME280;65062;48.446;8.834;2023-03-21T16:32:56;97303.28;;;15.20;41.63
72336;BME280;65062;48.446;8.834;2023-03-21T16:35:56;97313.81;;;15.20;42.29
72336;BME280;65062;48.446;8.834;2023-03-21T16:38:57;97311.09;;;15.08;44.60
72336;BME280;65062;48.446;8.834;2023-03-21T16:41:57;97301.34;;;14.91;44.29
72336;BME280;65062;48.446;8.834;2023-03-21T16:44:58;97307.47;;;14.85;47.07
72336;BME280;65062;48.446;8.834;2023-03-21T16:47:58;97309.81;;;14.75;49.93
72336;BME280;65062;48.446;8.834;2023-03-21T16:50:59;97312.91;;;14.65;46.79
72336;BME280;65062;48.446;8.834;2023-03-21T16:54:00;97319.66;;;14.54;47.43
72336;BME280;65062;48.446;8.834;2023-03-21T16:57:01;97323.44;;;14.40;46.62
72336;BME280;65062;48.446;8.834;2023-03-21T17:00:04;97325.09;;;14.35;44.71
72336;BME280;65062;48.446;8.834;2023-03-21T17:03:14;97326.41;;;14.13;49.06
72336;BME280;65062;48.446;8.834;2023-03-21T17:06:20;97320.97;;;14.08;49.99
72336;BME280;65062;48.446;8.834;2023-03-21T17:09:23;97324.69;;;13.94;50.82
72336;BME280;65062;48.446;8.834;2023-03-21T17:12:26;97323.91;;;13.87;51.64
72336;BME280;65062;48.446;8.834;2023-03-21T17:15:26;97330.66;;;13.70;53.32
72336;BME280;65062;48.446;8.834;2023-03-21T17:18:27;97326.50;;;13.49;52.75
72336;BME280;65062;48.446;8.834;2023-03-21T17:21:28;97321.50;;;13.35;53.60
72336;BME280;65062;48.446;8.834;2023-03-21T17:24:29;97325.75;;;13.23;54.62
72336;BME280;65062;48.446;8.834;2023-03-21T17:27:30;97332.25;;;13.14;55.94
72336;BME280;65062;48.446;8.834;2023-03-21T17:30:32;97322.59;;;13.01;56.80
72336;BME280;65062;48.446;8.834;2023-03-21T17:33:34;97323.75;;;12.86;57.54
72336;BME280;65062;48.446;8.834;2023-03-21T17:36:36;97324.38;;;12.68;58.21
72336;BME280;65062;48.446;8.834;2023-03-21T17:39:37;97330.44;;;12.68;56.38
72336;BME280;65062;48.446;8.834;2023-03-21T17:42:38;97325.78;;;12.44;57.85
72336;BME280;65062;48.446;8.834;2023-03-21T17:45:39;97331.84;;;12.32;58.41
72336;BME280;65062;48.446;8.834;2023-03-21T17:48:40;97332.84;;;12.24;57.11
72336;BME280;65062;48.446;8.834;2023-03-21T17:51:41;97329.78;;;12.21;56.88
72336;BME280;65062;48.446;8.834;2023-03-21T17:54:42;97336.44;;;12.17;60.15
72336;BME280;65062;48.446;8.834;2023-03-21T17:57:43;97341.63;;;11.97;60.88